sensor_id;sensor_type;location;lat;lon;timestamp;pressure;altitude;pressure_sealevel;temperature
15079;BMP180;6932;51.438;5.470;2023-03-07T00:02:10;99580.00;;;11.20
15079;BMP180;6932;51.438;5.470;2023-03-07T00:04:36;99557.00;;;11.20
15079;BMP180;6932;51.438;5.470;2023-03-07T00:07:02;99571.00;;;11.20
15079;BMP180;6932;51.438;5.470;2023-03-07T00:09:28;99568.00;;;11.20
15079;BMP180;6932;51.438;5.470;2023-03-07T00:11:54;99571.00;;;11.20
15079;BMP180;6932;51.438;5.470;2023-03-07T00:14:20;99562.00;;;11.10
15079;BMP180;6932;51.438;5.470;2023-03-07T00:16:49;99566.00;;;11.20
15079;BMP180;6932;51.438;5.470;2023-03-07T00:19:14;99556.00;;;11.10
15079;BMP180;6932;51.438;5.470;2023-03-07T00:21:43;99562.00;;;11.10
15079;BMP180;6932;51.438;5.470;2023-03-07T00:24:09;99569.00;;;11.10
15079;BMP180;6932;51.438;5.470;2023-03-07T00:26:35;99560.00;;;11.10
15079;BMP180;6932;51.438;5.470;2023-03-07T00:29:06;99561.00;;;11.00
15079;BMP180;6932;51.438;5.470;2023-03-07T00:31:33;99562.00;;;11.10
15079;BMP180;6932;51.438;5.470;2023-03-07T00:33:59;99557.00;;;11.00
15079;BMP180;6932;51.438;5.470;2023-03-07T00:36:25;99548.00;;;11.00
15079;BMP180;6932;51.438;5.470;2023-03-07T00:38:52;99532.00;;;11.00
15079;BMP180;6932;51.438;5.470;2023-03-07T00:41:24;99525.00;;;11.00
15079;BMP180;6932;51.438;5.470;2023-03-07T00:43:51;99528.00;;;11.00
15079;BMP180;6932;51.438;5.470;2023-03-07T00:46:20;99534.00;;;10.90
15079;BMP180;6932;51.438;5.470;2023-03-07T00:48:47;99528.00;;;11.00
15079;BMP180;6932;51.438;5.470;2023-03-07T00:51:16;99519.00;;;11.00
15079;BMP180;6932;51.438;5.470;2023-03-07T00:53:43;99528.00;;;11.00
15079;BMP180;6932;51.438;5.470;2023-03-07T00:56:16;99518.00;;;11.00
15079;BMP180;6932;51.438;5.470;2023-03-07T00:58:43;99526.00;;;11.00
15079;BMP180;6932;51.438;5.470;2023-03-07T01:01:13;99516.00;;;11.00
15079;BMP180;6932;51.438;5.470;2023-03-07T01:03:40;99507.00;;;11.00
15079;BMP180;6932;51.438;5.470;2023-03-07T01:06:12;99516.00;;;11.00
15079;BMP180;6932;51.438;5.470;2023-03-07T01:08:38;99524.00;;;11.00
15079;BMP180;6932;51.438;5.470;2023-03-07T01:11:06;99507.00;;;11.00
15079;BMP180;6932;51.438;5.470;2023-03-07T01:13:34;99504.00;;;11.00
15079;BMP180;6932;51.438;5.470;2023-03-07T01:16:17;99505.00;;;11.00
15079;BMP180;6932;51.438;5.470;2023-03-07T01:18:47;99512.00;;;11.00
15079;BMP180;6932;51.438;5.470;2023-03-07T01:21:35;99506.00;;;10.90
15079;BMP180;6932;51.438;5.470;2023-03-07T01:24:04;99493.00;;;10.90
15079;BMP180;6932;51.438;5.470;2023-03-07T01:26:32;99496.00;;;10.90
15079;BMP180;6932;51.438;5.470;2023-03-07T01:29:01;99493.00;;;11.00
15079;BMP180;6932;51.438;5.470;2023-03-07T01:31:28;99504.00;;;11.00
15079;BMP180;6932;51.438;5.470;2023-03-07T01:33:58;99498.00;;;11.00
15079;BMP180;6932;51.438;5.470;2023-03-07T01:36:30;99492.00;;;11.00
15079;BMP180;6932;51.438;5.470;2023-03-07T01:39:11;99481.00;;;11.00
15079;BMP180;6932;51.438;5.470;2023-03-07T01:41:39;99486.00;;;11.00
15079;BMP180;6932;51.438;5.470;2023-03-07T01:44:22;99481.00;;;11.00
15079;BMP180;6932;51.438;5.470;2023-03-07T01:46:51;99470.00;;;11.00
15079;BMP180;6932;51.438;5.470;2023-03-07T01:49:33;99473.00;;;11.00
15079;BMP180;6932;51.438;5.470;2023-03-07T01:55:41;99471.00;;;10.90
15079;BMP180;6932;51.438;5.470;2023-03-07T01:58:13;99465.00;;;11.00
15079;BMP180;6932;51.438;5.470;2023-03-07T02:00:41;99462.00;;;11.00
15079;BMP180;6932;51.438;5.470;2023-03-07T02:06:09;99468.00;;;11.00
15079;BMP180;6932;51.438;5.470;2023-03-07T02:08:37;99461.00;;;10.90
15079;BMP180;6932;51.438;5.470;2023-03-07T02:11:06;99450.00;;;10.90
15079;BMP180;6932;51.438;5.470;2023-03-07T02:13:32;99456.00;;;11.00
15079;BMP180;6932;51.438;5.470;2023-03-07T02:16:01;99458.00;;;11.00
15079;BMP180;6932;51.438;5.470;2023-03-07T02:18:31;99452.00;;;11.00
15079;BMP180;6932;51.438;5.470;2023-03-07T02:21:39;99451.00;;;11.00
15079;BMP180;6932;51.438;5.470;2023-03-07T02:24:28;99446.00;;;11.00
15079;BMP180;6932;51.438;5.470;2023-03-07T02:26:57;99441.00;;;10.90
15079;BMP180;6932;51.438;5.470;2023-03-07T02:29:23;99435.00;;;11.00
15079;BMP180;6932;51.438;5.470;2023-03-07T02:31:49;99437.00;;;11.00
15079;BMP180;6932;51.438;5.470;2023-03-07T02:34:25;99436.00;;;11.00
15079;BMP180;6932;51.438;5.470;2023-03-07T02:36:58;99431.00;;;11.00
15079;BMP180;6932;51.438;5.470;2023-03-07T02:39:27;99434.00;;;10.90
15079;BMP180;6932;51.438;5.470;2023-03-07T02:41:59;99439.00;;;10.90
15079;BMP180;6932;51.438;5.470;2023-03-07T02:44:25;99427.00;;;10.90
15079;BMP180;6932;51.438;5.470;2023-03-07T02:46:51;99430.00;;;10.90
15079;BMP180;6932;51.438;5.470;2023-03-07T02:49:17;99430.00;;;10.90
15079;BMP180;6932;51.438;5.470;2023-03-07T02:55:24;99426.00;;;10.80
15079;BMP180;6932;51.438;5.470;2023-03-07T02:57:49;99418.00;;;10.80
15079;BMP180;6932;51.438;5.470;2023-03-07T03:00:16;99408.00;;;10.90
15079;BMP180;6932;51.438;5.470;2023-03-07T03:02:42;99405.00;;;10.90
15079;BMP180;6932;51.438;5.470;2023-03-07T03:05:08;99415.00;;;10.90
15079;BMP180;6932;51.438;5.470;2023-03-07T03:07:34;99414.00;;;10.90
15079;BMP180;6932;51.438;5.470;2023-03-07T03:09:59;99416.00;;;10.80
15079;BMP180;6932;51.438;5.470;2023-03-07T03:12:31;99405.00;;;10.90
15079;BMP180;6932;51.438;5.470;2023-03-07T03:14:57;99410.00;;;10.90
15079;BMP180;6932;51.438;5.470;2023-03-07T03:17:23;99415.00;;;10.90
15079;BMP180;6932;51.438;5.470;2023-03-07T03:19:49;99412.00;;;10.90
15079;BMP180;6932;51.438;5.470;2023-03-07T03:22:15;99411.00;;;10.90
15079;BMP180;6932;51.438;5.470;2023-03-07T03:24:42;99413.00;;;10.90
15079;BMP180;6932;51.438;5.470;2023-03-07T03:27:08;99412.00;;;10.90
15079;BMP180;6932;51.438;5.470;2023-03-07T03:29:35;99399.00;;;10.90
15079;BMP180;6932;51.438;5.470;2023-03-07T03:32:01;99407.00;;;10.90
15079;BMP180;6932;51.438;5.470;2023-03-07T03:34:27;99405.00;;;10.90
15079;BMP180;6932;51.438;5.470;2023-03-07T03:36:53;99407.00;;;10.90
15079;BMP180;6932;51.438;5.470;2023-03-07T03:39:19;99406.00;;;10.90
15079;BMP180;6932;51.438;5.470;2023-03-07T03:41:44;99392.00;;;10.90
15079;BMP180;6932;51.438;5.470;2023-03-07T03:44:10;99401.00;;;10.90
15079;BMP180;6932;51.438;5.470;2023-03-07T03:46:36;99385.00;;;10.90
15079;BMP180;6932;51.438;5.470;2023-03-07T03:49:03;99393.00;;;10.80
15079;BMP180;6932;51.438;5.470;2023-03-07T04:02:32;99371.00;;;10.70
15079;BMP180;6932;51.438;5.470;2023-03-07T04:04:58;99365.00;;;10.80
15079;BMP180;6932;51.438;5.470;2023-03-07T04:07:24;99366.00;;;10.80
15079;BMP180;6932;51.438;5.470;2023-03-07T04:09:53;99368.00;;;10.80
15079;BMP180;6932;51.438;5.470;2023-03-07T04:16:00;99342.00;;;10.80
15079;BMP180;6932;51.438;5.470;2023-03-07T04:18:26;99352.00;;;10.80
15079;BMP180;6932;51.438;5.470;2023-03-07T04:20:52;99344.00;;;10.80
15079;BMP180;6932;51.438;5.470;2023-03-07T04:26:59;99348.00;;;10.70
15079;BMP180;6932;51.438;5.470;2023-03-07T04:29:25;99337.00;;;10.70
15079;BMP180;6932;51.438;5.470;2023-03-07T04:31:51;99329.00;;;10.80
15079;BMP180;6932;51.438;5.470;2023-03-07T04:34:17;99328.00;;;10.80
15079;BMP180;6932;51.438;5.470;2023-03-07T04:36:42;99327.00;;;10.80
15079;BMP180;6932;51.438;5.470;2023-03-07T04:39:08;99323.00;;;10.80
15079;BMP180;6932;51.438;5.470;2023-03-07T04:41:34;99324.00;;;10.80
15079;BMP180;6932;51.438;5.470;2023-03-07T04:47:40;99326.00;;;10.70
15079;BMP180;6932;51.438;5.470;2023-03-07T04:50:07;99316.00;;;10.80
15079;BMP180;6932;51.438;5.470;2023-03-07T04:52:33;99313.00;;;10.80
15079;BMP180;6932;51.438;5.470;2023-03-07T04:58:32;99313.00;;;10.80
15079;BMP180;6932;51.438;5.470;2023-03-07T05:01:00;99305.00;;;10.80
15079;BMP180;6932;51.438;5.470;2023-03-07T05:03:27;99309.00;;;10.80
15079;BMP180;6932;51.438;5.470;2023-03-07T05:05:53;99309.00;;;10.70
15079;BMP180;6932;51.438;5.470;2023-03-07T05:08:20;99312.00;;;10.80
15079;BMP180;6932;51.438;5.470;2023-03-07T05:10:46;99304.00;;;10.80
15079;BMP180;6932;51.438;5.470;2023-03-07T05:13:12;99308.00;;;10.80
15079;BMP180;6932;51.438;5.470;2023-03-07T05:15:38;99292.00;;;10.80
15079;BMP180;6932;51.438;5.470;2023-03-07T05:18:04;99294.00;;;10.80
15079;BMP180;6932;51.438;5.470;2023-03-07T05:20:30;99311.00;;;10.80
15079;BMP180;6932;51.438;5.470;2023-03-07T05:22:56;99297.00;;;10.80
15079;BMP180;6932;51.438;5.470;2023-03-07T05:25:22;99294.00;;;10.80
15079;BMP180;6932;51.438;5.470;2023-03-07T05:27:48;99289.00;;;10.80
15079;BMP180;6932;51.438;5.470;2023-03-07T05:30:14;99286.00;;;10.70
15079;BMP180;6932;51.438;5.470;2023-03-07T05:32:41;99275.00;;;10.70
15079;BMP180;6932;51.438;5.470;2023-03-07T05:35:09;99272.00;;;10.80
15079;BMP180;6932;51.438;5.470;2023-03-07T05:37:36;99265.00;;;10.80
15079;BMP180;6932;51.438;5.470;2023-03-07T05:40:03;99263.00;;;10.80
15079;BMP180;6932;51.438;5.470;2023-03-07T05:42:33;99262.00;;;10.80
15079;BMP180;6932;51.438;5.470;2023-03-07T05:44:59;99252.00;;;10.80
15079;BMP180;6932;51.438;5.470;2023-03-07T05:47:24;99262.00;;;10.80
15079;BMP180;6932;51.438;5.470;2023-03-07T05:49:50;99256.00;;;10.80
15079;BMP180;6932;51.438;5.470;2023-03-07T05:52:16;99251.00;;;10.80
15079;BMP180;6932;51.438;5.470;2023-03-07T05:54:42;99260.00;;;10.80
15079;BMP180;6932;51.438;5.470;2023-03-07T05:57:07;99259.00;;;10.80
15079;BMP180;6932;51.438;5.470;2023-03-07T05:59:33;99248.00;;;10.80
15079;BMP180;6932;51.438;5.470;2023-03-07T06:01:59;99262.00;;;10.80
15079;BMP180;6932;51.438;5.470;2023-03-07T06:04:25;99259.00;;;10.80
15079;BMP180;6932;51.438;5.470;2023-03-07T06:06:50;99263.00;;;10.80
15079;BMP180;6932;51.438;5.470;2023-03-07T06:09:16;99249.00;;;10.80
15079;BMP180;6932;51.438;5.470;2023-03-07T06:11:42;99249.00;;;10.80
15079;BMP180;6932;51.438;5.470;2023-03-07T06:14:08;99258.00;;;10.80
15079;BMP180;6932;51.438;5.470;2023-03-07T06:16:34;99258.00;;;10.80
15079;BMP180;6932;51.438;5.470;2023-03-07T06:18:59;99250.00;;;10.70
15079;BMP180;6932;51.438;5.470;2023-03-07T06:21:53;99261.00;;;10.70
15079;BMP180;6932;51.438;5.470;2023-03-07T06:24:19;99269.00;;;10.60
15079;BMP180;6932;51.438;5.470;2023-03-07T06:26:45;99247.00;;;10.60
15079;BMP180;6932;51.438;5.470;2023-03-07T06:29:10;99266.00;;;10.60
15079;BMP180;6932;51.438;5.470;2023-03-07T06:31:36;99262.00;;;10.60
15079;BMP180;6932;51.438;5.470;2023-03-07T06:34:02;99258.00;;;10.60
15079;BMP180;6932;51.438;5.470;2023-03-07T06:36:28;99261.00;;;10.60
15079;BMP180;6932;51.438;5.470;2023-03-07T06:38:53;99260.00;;;10.50
15079;BMP180;6932;51.438;5.470;2023-03-07T06:41:19;99269.00;;;10.50
15079;BMP180;6932;51.438;5.470;2023-03-07T06:43:45;99276.00;;;10.50
15079;BMP180;6932;51.438;5.470;2023-03-07T06:46:11;99265.00;;;10.50
15079;BMP180;6932;51.438;5.470;2023-03-07T06:48:36;99259.00;;;10.50
15079;BMP180;6932;51.438;5.470;2023-03-07T06:51:07;99260.00;;;10.50
15079;BMP180;6932;51.438;5.470;2023-03-07T06:53:34;99265.00;;;10.50
15079;BMP180;6932;51.438;5.470;2023-03-07T06:55:59;99254.00;;;10.50
15079;BMP180;6932;51.438;5.470;2023-03-07T06:58:25;99261.00;;;10.50
15079;BMP180;6932;51.438;5.470;2023-03-07T07:00:51;99263.00;;;10.50
15079;BMP180;6932;51.438;5.470;2023-03-07T07:03:19;99268.00;;;10.50
15079;BMP180;6932;51.438;5.470;2023-03-07T07:05:45;99278.00;;;10.40
15079;BMP180;6932;51.438;5.470;2023-03-07T07:08:11;99274.00;;;10.40
15079;BMP180;6932;51.438;5.470;2023-03-07T07:10:37;99278.00;;;10.40
15079;BMP180;6932;51.438;5.470;2023-03-07T07:13:03;99275.00;;;10.30
15079;BMP180;6932;51.438;5.470;2023-03-07T07:15:30;99278.00;;;10.30
15079;BMP180;6932;51.438;5.470;2023-03-07T07:17:56;99279.00;;;10.30
15079;BMP180;6932;51.438;5.470;2023-03-07T07:20:22;99270.00;;;10.20
15079;BMP180;6932;51.438;5.470;2023-03-07T07:22:48;99270.00;;;10.20
15079;BMP180;6932;51.438;5.470;2023-03-07T07:25:14;99259.00;;;10.20
15079;BMP180;6932;51.438;5.470;2023-03-07T07:27:40;99275.00;;;10.10
15079;BMP180;6932;51.438;5.470;2023-03-07T07:30:07;99277.00;;;10.10
15079;BMP180;6932;51.438;5.470;2023-03-07T07:32:53;99263.00;;;10.10
15079;BMP180;6932;51.438;5.470;2023-03-07T07:35:19;99289.00;;;10.00
15079;BMP180;6932;51.438;5.470;2023-03-07T07:37:45;99287.00;;;10.00
15079;BMP180;6932;51.438;5.470;2023-03-07T07:40:12;99291.00;;;9.90
15079;BMP180;6932;51.438;5.470;2023-03-07T07:42:39;99288.00;;;9.90
15079;BMP180;6932;51.438;5.470;2023-03-07T07:45:06;99311.00;;;9.90
15079;BMP180;6932;51.438;5.470;2023-03-07T07:47:32;99317.00;;;9.80
15079;BMP180;6932;51.438;5.470;2023-03-07T07:53:39;99339.00;;;9.70
15079;BMP180;6932;51.438;5.470;2023-03-07T07:56:05;99335.00;;;9.70
15079;BMP180;6932;51.438;5.470;2023-03-07T07:58:31;99332.00;;;9.60
15079;BMP180;6932;51.438;5.470;2023-03-07T08:00:57;99338.00;;;9.60
15079;BMP180;6932;51.438;5.470;2023-03-07T08:03:23;99322.00;;;9.60
15079;BMP180;6932;51.438;5.470;2023-03-07T08:05:49;99309.00;;;9.50
15079;BMP180;6932;51.438;5.470;2023-03-07T08:08:17;99317.00;;;9.50
15079;BMP180;6932;51.438;5.470;2023-03-07T08:10:44;99314.00;;;9.50
15079;BMP180;6932;51.438;5.470;2023-03-07T08:13:12;99320.00;;;9.40
15079;BMP180;6932;51.438;5.470;2023-03-07T08:15:39;99321.00;;;9.40
15079;BMP180;6932;51.438;5.470;2023-03-07T08:18:06;99336.00;;;9.30
15079;BMP180;6932;51.438;5.470;2023-03-07T08:20:32;99337.00;;;9.30
15079;BMP180;6932;51.438;5.470;2023-03-07T08:22:57;99344.00;;;9.30
15079;BMP180;6932;51.438;5.470;2023-03-07T08:25:24;99342.00;;;9.30
15079;BMP180;6932;51.438;5.470;2023-03-07T08:27:52;99344.00;;;9.30
15079;BMP180;6932;51.438;5.470;2023-03-07T08:30:25;99333.00;;;9.30
15079;BMP180;6932;51.438;5.470;2023-03-07T08:32:53;99346.00;;;9.20
15079;BMP180;6932;51.438;5.470;2023-03-07T08:35:20;99342.00;;;9.30
15079;BMP180;6932;51.438;5.470;2023-03-07T08:37:47;99356.00;;;9.20
15079;BMP180;6932;51.438;5.470;2023-03-07T08:40:16;99349.00;;;9.20
15079;BMP180;6932;51.438;5.470;2023-03-07T08:42:42;99356.00;;;9.20
15079;BMP180;6932;51.438;5.470;2023-03-07T08:52:30;99359.00;;;9.10
15079;BMP180;6932;51.438;5.470;2023-03-07T08:54:56;99359.00;;;9.10
15079;BMP180;6932;51.438;5.470;2023-03-07T08:57:21;99356.00;;;9.10
15079;BMP180;6932;51.438;5.470;2023-03-07T09:04:13;99353.00;;;9.10
15079;BMP180;6932;51.438;5.470;2023-03-07T09:06:39;99356.00;;;9.00
15079;BMP180;6932;51.438;5.470;2023-03-07T09:09:05;99355.00;;;9.00
15079;BMP180;6932;51.438;5.470;2023-03-07T09:15:12;99358.00;;;8.90
15079;BMP180;6932;51.438;5.470;2023-03-07T09:17:38;99352.00;;;8.90
15079;BMP180;6932;51.438;5.470;2023-03-07T09:20:11;99356.00;;;8.90
15079;BMP180;6932;51.438;5.470;2023-03-07T09:22:38;99359.00;;;8.90
15079;BMP180;6932;51.438;5.470;2023-03-07T09:25:04;99365.00;;;8.90
15079;BMP180;6932;51.438;5.470;2023-03-07T09:27:30;99367.00;;;8.90
15079;BMP180;6932;51.438;5.470;2023-03-07T09:29:56;99375.00;;;8.90
15079;BMP180;6932;51.438;5.470;2023-03-07T09:32:22;99365.00;;;8.90
15079;BMP180;6932;51.438;5.470;2023-03-07T09:34:48;99366.00;;;8.90
15079;BMP180;6932;51.438;5.470;2023-03-07T09:37:14;99367.00;;;8.90
15079;BMP180;6932;51.438;5.470;2023-03-07T09:39:40;99368.00;;;8.90
15079;BMP180;6932;51.438;5.470;2023-03-07T09:56:59;99376.00;;;8.80
15079;BMP180;6932;51.438;5.470;2023-03-07T09:59:44;99294.00;;;8.80
15079;BMP180;6932;51.438;5.470;2023-03-07T10:02:36;99283.00;;;8.80
15079;BMP180;6932;51.438;5.470;2023-03-07T10:05:29;99299.00;;;8.60
15079;BMP180;6932;51.438;5.470;2023-03-07T10:07:57;99290.00;;;8.30
15079;BMP180;6932;51.438;5.470;2023-03-07T10:10:33;99288.00;;;8.10
15079;BMP180;6932;51.438;5.470;2023-03-07T10:16:00;99307.00;;;7.70
15079;BMP180;6932;51.438;5.470;2023-03-07T10:22:08;99294.00;;;7.50
15079;BMP180;6932;51.438;5.470;2023-03-07T10:25:03;99300.00;;;7.40
15079;BMP180;6932;51.438;5.470;2023-03-07T10:27:30;99293.00;;;7.30
15079;BMP180;6932;51.438;5.470;2023-03-07T10:29:59;99289.00;;;7.30
15079;BMP180;6932;51.438;5.470;2023-03-07T10:32:56;99296.00;;;7.20
15079;BMP180;6932;51.438;5.470;2023-03-07T10:35:39;99286.00;;;7.20
15079;BMP180;6932;51.438;5.470;2023-03-07T10:38:56;99295.00;;;7.20
15079;BMP180;6932;51.438;5.470;2023-03-07T10:41:24;99285.00;;;7.10
15079;BMP180;6932;51.438;5.470;2023-03-07T10:43:57;99379.00;;;7.10
15079;BMP180;6932;51.438;5.470;2023-03-07T10:46:27;99376.00;;;7.20
15079;BMP180;6932;51.438;5.470;2023-03-07T10:52:04;99371.00;;;7.50
15079;BMP180;6932;51.438;5.470;2023-03-07T10:54:36;99386.00;;;7.70
15079;BMP180;6932;51.438;5.470;2023-03-07T10:57:15;99377.00;;;7.80
15079;BMP180;6932;51.438;5.470;2023-03-07T10:59:46;99372.00;;;8.00
15079;BMP180;6932;51.438;5.470;2023-03-07T11:02:35;99379.00;;;8.10
15079;BMP180;6932;51.438;5.470;2023-03-07T11:07:48;99381.00;;;8.40
15079;BMP180;6932;51.438;5.470;2023-03-07T11:10:37;99388.00;;;8.50
15079;BMP180;6932;51.438;5.470;2023-03-07T11:13:19;99381.00;;;8.60
15079;BMP180;6932;51.438;5.470;2023-03-07T11:15:45;99379.00;;;8.60
15079;BMP180;6932;51.438;5.470;2023-03-07T11:18:37;99378.00;;;8.70
15079;BMP180;6932;51.438;5.470;2023-03-07T11:21:04;99370.00;;;8.80
15079;BMP180;6932;51.438;5.470;2023-03-07T11:23:30;99370.00;;;8.90
15079;BMP180;6932;51.438;5.470;2023-03-07T11:26:21;99375.00;;;8.90
15079;BMP180;6932;51.438;5.470;2023-03-07T11:29:03;99374.00;;;9.00
15079;BMP180;6932;51.438;5.470;2023-03-07T11:35:13;99374.00;;;9.10
15079;BMP180;6932;51.438;5.470;2023-03-07T11:41:34;99368.00;;;9.20
15079;BMP180;6932;51.438;5.470;2023-03-07T11:44:40;99374.00;;;9.30
15079;BMP180;6932;51.438;5.470;2023-03-07T11:50:25;99369.00;;;9.40
15079;BMP180;6932;51.438;5.470;2023-03-07T11:56:22;99362.00;;;9.60
15079;BMP180;6932;51.438;5.470;2023-03-07T12:01:57;99373.00;;;9.60
15079;BMP180;6932;51.438;5.470;2023-03-07T12:08:50;99371.00;;;9.70
15079;BMP180;6932;51.438;5.470;2023-03-07T12:23:19;99364.00;;;9.80
15079;BMP180;6932;51.438;5.470;2023-03-07T12:26:05;99362.00;;;9.80
15079;BMP180;6932;51.438;5.470;2023-03-07T12:29:07;99363.00;;;9.90
15079;BMP180;6932;51.438;5.470;2023-03-07T12:31:44;99357.00;;;9.90
15079;BMP180;6932;51.438;5.470;2023-03-07T12:34:32;99360.00;;;10.00
15079;BMP180;6932;51.438;5.470;2023-03-07T12:37:13;99365.00;;;10.00
15079;BMP180;6932;51.438;5.470;2023-03-07T12:39:53;99362.00;;;10.10
15079;BMP180;6932;51.438;5.470;2023-03-07T12:42:34;99364.00;;;10.10
15079;BMP180;6932;51.438;5.470;2023-03-07T12:45:28;99356.00;;;10.10
15079;BMP180;6932;51.438;5.470;2023-03-07T12:48:18;99364.00;;;10.20
15079;BMP180;6932;51.438;5.470;2023-03-07T12:51:27;99364.00;;;10.20
15079;BMP180;6932;51.438;5.470;2023-03-07T12:54:04;99363.00;;;10.30
15079;BMP180;6932;51.438;5.470;2023-03-07T12:59:19;99357.00;;;10.30
15079;BMP180;6932;51.438;5.470;2023-03-07T13:01:57;99356.00;;;10.40
15079;BMP180;6932;51.438;5.470;2023-03-07T13:04:32;99358.00;;;10.40
15079;BMP180;6932;51.438;5.470;2023-03-07T13:10:39;99354.00;;;10.40
15079;BMP180;6932;51.438;5.470;2023-03-07T13:16:12;99256.00;;;10.40
15079;BMP180;6932;51.438;5.470;2023-03-07T13:35:59;99287.00;;;9.30
15079;BMP180;6932;51.438;5.470;2023-03-07T13:41:04;99349.00;;;9.30
15079;BMP180;6932;51.438;5.470;2023-03-07T13:43:54;99354.00;;;9.50
15079;BMP180;6932;51.438;5.470;2023-03-07T13:46:50;99349.00;;;9.60
15079;BMP180;6932;51.438;5.470;2023-03-07T13:49:40;99346.00;;;9.80
15079;BMP180;6932;51.438;5.470;2023-03-07T13:52:30;99354.00;;;9.90
15079;BMP180;6932;51.438;5.470;2023-03-07T13:55:00;99358.00;;;10.00
15079;BMP180;6932;51.438;5.470;2023-03-07T13:57:34;99361.00;;;10.10
15079;BMP180;6932;51.438;5.470;2023-03-07T14:00:20;99360.00;;;10.20
15079;BMP180;6932;51.438;5.470;2023-03-07T14:02:48;99366.00;;;10.20
15079;BMP180;6932;51.438;5.470;2023-03-07T14:05:14;99360.00;;;10.30
15079;BMP180;6932;51.438;5.470;2023-03-07T14:07:40;99369.00;;;10.30
15079;BMP180;6932;51.438;5.470;2023-03-07T14:10:26;99366.00;;;10.40
15079;BMP180;6932;51.438;5.470;2023-03-07T14:13:23;99373.00;;;10.40
15079;BMP180;6932;51.438;5.470;2023-03-07T14:16:29;99370.00;;;10.40
15079;BMP180;6932;51.438;5.470;2023-03-07T14:19:18;99383.00;;;10.50
15079;BMP180;6932;51.438;5.470;2023-03-07T14:22:11;99378.00;;;10.50
15079;BMP180;6932;51.438;5.470;2023-03-07T14:24:58;99385.00;;;10.50
15079;BMP180;6932;51.438;5.470;2023-03-07T14:27:26;99379.00;;;10.50
15079;BMP180;6932;51.438;5.470;2023-03-07T14:30:22;99366.00;;;10.60
15079;BMP180;6932;51.438;5.470;2023-03-07T14:32:48;99376.00;;;10.60
15079;BMP180;6932;51.438;5.470;2023-03-07T14:35:14;99385.00;;;10.60
15079;BMP180;6932;51.438;5.470;2023-03-07T14:37:44;99391.00;;;10.60
15079;BMP180;6932;51.438;5.470;2023-03-07T14:40:32;99391.00;;;10.60
15079;BMP180;6932;51.438;5.470;2023-03-07T14:43:24;99387.00;;;10.60
15079;BMP180;6932;51.438;5.470;2023-03-07T14:46:10;99386.00;;;10.50
15079;BMP180;6932;51.438;5.470;2023-03-07T14:51:43;99393.00;;;10.50
15079;BMP180;6932;51.438;5.470;2023-03-07T14:54:16;99395.00;;;10.40
15079;BMP180;6932;51.438;5.470;2023-03-07T14:56:45;99403.00;;;10.40
15079;BMP180;6932;51.438;5.470;2023-03-07T14:59:12;99402.00;;;10.40
15079;BMP180;6932;51.438;5.470;2023-03-07T15:01:40;99399.00;;;10.40
15079;BMP180;6932;51.438;5.470;2023-03-07T15:04:31;99407.00;;;10.30
15079;BMP180;6932;51.438;5.470;2023-03-07T15:07:00;99409.00;;;10.30
15079;BMP180;6932;51.438;5.470;2023-03-07T15:09:27;99403.00;;;10.30
15079;BMP180;6932;51.438;5.470;2023-03-07T15:12:20;99404.00;;;10.30
15079;BMP180;6932;51.438;5.470;2023-03-07T15:14:55;99411.00;;;10.30
15079;BMP180;6932;51.438;5.470;2023-03-07T15:17:48;99410.00;;;10.30
15079;BMP180;6932;51.438;5.470;2023-03-07T15:20:22;99407.00;;;10.30
15079;BMP180;6932;51.438;5.470;2023-03-07T15:22:49;99409.00;;;10.30
15079;BMP180;6932;51.438;5.470;2023-03-07T15:25:17;99408.00;;;10.20
15079;BMP180;6932;51.438;5.470;2023-03-07T15:27:44;99419.00;;;10.20
15079;BMP180;6932;51.438;5.470;2023-03-07T15:30:25;99417.00;;;10.20
15079;BMP180;6932;51.438;5.470;2023-03-07T15:36:04;99415.00;;;10.20
15079;BMP180;6932;51.438;5.470;2023-03-07T15:38:32;99418.00;;;10.20
15079;BMP180;6932;51.438;5.470;2023-03-07T15:40:58;99416.00;;;10.20
15079;BMP180;6932;51.438;5.470;2023-03-07T15:47:13;99431.00;;;10.10
15079;BMP180;6932;51.438;5.470;2023-03-07T15:49:45;99420.00;;;10.10
15079;BMP180;6932;51.438;5.470;2023-03-07T15:52:35;99433.00;;;10.10
15079;BMP180;6932;51.438;5.470;2023-03-07T15:55:06;99435.00;;;10.00
15079;BMP180;6932;51.438;5.470;2023-03-07T15:57:54;99440.00;;;10.00
15079;BMP180;6932;51.438;5.470;2023-03-07T16:06:42;99441.00;;;9.80
15079;BMP180;6932;51.438;5.470;2023-03-07T16:09:16;99443.00;;;9.80
15079;BMP180;6932;51.438;5.470;2023-03-07T16:11:44;99443.00;;;9.80
15079;BMP180;6932;51.438;5.470;2023-03-07T16:14:28;99456.00;;;9.70
15079;BMP180;6932;51.438;5.470;2023-03-07T16:16:59;99458.00;;;9.70
15079;BMP180;6932;51.438;5.470;2023-03-07T16:19:25;99457.00;;;9.70
15079;BMP180;6932;51.438;5.470;2023-03-07T16:21:51;99455.00;;;9.70
15079;BMP180;6932;51.438;5.470;2023-03-07T16:24:17;99464.00;;;9.60
15079;BMP180;6932;51.438;5.470;2023-03-07T16:26:44;99457.00;;;9.60
15079;BMP180;6932;51.438;5.470;2023-03-07T16:29:20;99456.00;;;9.60
15079;BMP180;6932;51.438;5.470;2023-03-07T16:31:47;99474.00;;;9.60
15079;BMP180;6932;51.438;5.470;2023-03-07T16:34:19;99470.00;;;9.50
15079;BMP180;6932;51.438;5.470;2023-03-07T16:36:46;99479.00;;;9.50
15079;BMP180;6932;51.438;5.470;2023-03-07T16:39:13;99485.00;;;9.50
15079;BMP180;6932;51.438;5.470;2023-03-07T16:41:46;99480.00;;;9.50
15079;BMP180;6932;51.438;5.470;2023-03-07T16:44:19;99486.00;;;9.40
15079;BMP180;6932;51.438;5.470;2023-03-07T16:47:05;99501.00;;;9.40
15079;BMP180;6932;51.438;5.470;2023-03-07T16:49:33;99507.00;;;9.40
15079;BMP180;6932;51.438;5.470;2023-03-07T16:51:59;99510.00;;;9.40
15079;BMP180;6932;51.438;5.470;2023-03-07T16:54:25;99499.00;;;9.40
15079;BMP180;6932;51.438;5.470;2023-03-07T16:56:53;99507.00;;;9.30
15079;BMP180;6932;51.438;5.470;2023-03-07T16:59:23;99521.00;;;9.30
15079;BMP180;6932;51.438;5.470;2023-03-07T17:01:52;99511.00;;;9.30
15079;BMP180;6932;51.438;5.470;2023-03-07T17:04:18;99520.00;;;9.30
15079;BMP180;6932;51.438;5.470;2023-03-07T17:06:44;99517.00;;;9.30
15079;BMP180;6932;51.438;5.470;2023-03-07T17:09:11;99526.00;;;9.30
15079;BMP180;6932;51.438;5.470;2023-03-07T17:11:49;99528.00;;;9.30
15079;BMP180;6932;51.438;5.470;2023-03-07T17:14:17;99531.00;;;9.20
15079;BMP180;6932;51.438;5.470;2023-03-07T17:16:46;99532.00;;;9.20
15079;BMP180;6932;51.438;5.470;2023-03-07T17:19:29;99529.00;;;9.20
15079;BMP180;6932;51.438;5.470;2023-03-07T17:25:45;99543.00;;;9.10
15079;BMP180;6932;51.438;5.470;2023-03-07T17:28:14;99548.00;;;9.00
15079;BMP180;6932;51.438;5.470;2023-03-07T17:30:40;99555.00;;;9.00
15079;BMP180;6932;51.438;5.470;2023-03-07T17:33:10;99545.00;;;9.00
15079;BMP180;6932;51.438;5.470;2023-03-07T17:35:36;99551.00;;;9.00